sensor_id;sensor_type;location;lat;lon;timestamp;temperature;humidity
4596;DHT22;2310;49.978;8.742;2023-04-22T00:00:50;14.40;99.90
4596;DHT22;2310;49.978;8.742;2023-04-22T00:04:57;14.30;99.90
4596;DHT22;2310;49.978;8.742;2023-04-22T00:08:59;14.30;99.90
4596;DHT22;2310;49.978;8.742;2023-04-22T00:13:00;14.40;99.90
4596;DHT22;2310;49.978;8.742;2023-04-22T00:17:01;14.40;99.90
4596;DHT22;2310;49.978;8.742;2023-04-22T00:21:03;14.40;99.90
4596;DHT22;2310;49.978;8.742;2023-04-22T00:25:05;14.40;99.90
4596;DHT22;2310;49.978;8.742;2023-04-22T00:29:06;14.40;99.90
4596;DHT22;2310;49.978;8.742;2023-04-22T00:33:08;14.40;99.90
4596;DHT22;2310;49.978;8.742;2023-04-22T00:37:09;14.30;99.90
4596;DHT22;2310;49.978;8.742;2023-04-22T00:41:11;14.40;99.90
4596;DHT22;2310;49.978;8.742;2023-04-22T00:45:15;14.40;99.90
4596;DHT22;2310;49.978;8.742;2023-04-22T00:49:19;14.40;99.90
4596;DHT22;2310;49.978;8.742;2023-04-22T00:53:20;14.30;99.90
4596;DHT22;2310;49.978;8.742;2023-04-22T00:57:21;14.40;99.90
4596;DHT22;2310;49.978;8.742;2023-04-22T01:01:23;14.40;99.90
4596;DHT22;2310;49.978;8.742;2023-04-22T01:05:25;14.30;99.90
4596;DHT22;2310;49.978;8.742;2023-04-22T01:09:27;14.30;99.90
4596;DHT22;2310;49.978;8.742;2023-04-22T01:13:28;14.40;99.90
4596;DHT22;2310;49.978;8.742;2023-04-22T01:17:30;14.30;99.90
4596;DHT22;2310;49.978;8.742;2023-04-22T01:21:34;14.30;99.90
4596;DHT22;2310;49.978;8.742;2023-04-22T01:25:38;14.20;99.90
4596;DHT22;2310;49.978;8.742;2023-04-22T01:29:39;14.30;99.90
4596;DHT22;2310;49.978;8.742;2023-04-22T01:33:42;14.30;99.90
4596;DHT22;2310;49.978;8.742;2023-04-22T01:37:44;14.10;99.90
4596;DHT22;2310;49.978;8.742;2023-04-22T01:41:45;14.20;99.90
4596;DHT22;2310;49.978;8.742;2023-04-22T01:45:47;14.30;99.90
4596;DHT22;2310;49.978;8.742;2023-04-22T01:49:48;14.30;99.90
4596;DHT22;2310;49.978;8.742;2023-04-22T01:53:49;14.30;99.90
4596;DHT22;2310;49.978;8.742;2023-04-22T01:57:51;14.20;99.90
4596;DHT22;2310;49.978;8.742;2023-04-22T02:01:52;14.00;99.90
4596;DHT22;2310;49.978;8.742;2023-04-22T02:05:53;14.10;99.90
4596;DHT22;2310;49.978;8.742;2023-04-22T02:09:54;14.10;99.90
4596;DHT22;2310;49.978;8.742;2023-04-22T02:13:55;14.10;99.90
4596;DHT22;2310;49.978;8.742;2023-04-22T02:17:57;14.00;99.90
4596;DHT22;2310;49.978;8.742;2023-04-22T02:21:58;14.00;99.90
4596;DHT22;2310;49.978;8.742;2023-04-22T02:25:59;14.00;99.90
4596;DHT22;2310;49.978;8.742;2023-04-22T02:30:01;13.90;99.90
4596;DHT22;2310;49.978;8.742;2023-04-22T02:34:04;13.60;99.90
4596;DHT22;2310;49.978;8.742;2023-04-22T02:38:05;13.40;99.90
4596;DHT22;2310;49.978;8.742;2023-04-22T02:42:06;13.50;99.90
4596;DHT22;2310;49.978;8.742;2023-04-22T02:46:07;13.50;99.90
4596;DHT22;2310;49.978;8.742;2023-04-22T02:50:11;13.40;99.90
4596;DHT22;2310;49.978;8.742;2023-04-22T02:54:12;13.50;99.90
4596;DHT22;2310;49.978;8.742;2023-04-22T02:58:13;13.40;99.90
4596;DHT22;2310;49.978;8.742;2023-04-22T03:02:14;13.30;99.90
4596;DHT22;2310;49.978;8.742;2023-04-22T03:06:16;13.10;99.90
4596;DHT22;2310;49.978;8.742;2023-04-22T03:10:17;12.90;99.90
4596;DHT22;2310;49.978;8.742;2023-04-22T03:14:19;12.80;99.90
4596;DHT22;2310;49.978;8.742;2023-04-22T03:18:20;12.70;99.90
4596;DHT22;2310;49.978;8.742;2023-04-22T03:22:21;12.70;99.90
4596;DHT22;2310;49.978;8.742;2023-04-22T03:26:23;12.90;99.90
4596;DHT22;2310;49.978;8.742;2023-04-22T03:30:24;12.90;99.90
4596;DHT22;2310;49.978;8.742;2023-04-22T03:34:25;13.00;99.90
4596;DHT22;2310;49.978;8.742;2023-04-22T03:38:26;13.20;99.90
4596;DHT22;2310;49.978;8.742;2023-04-22T03:42:27;13.30;99.90
4596;DHT22;2310;49.978;8.742;2023-04-22T03:46:29;13.30;99.90
4596;DHT22;2310;49.978;8.742;2023-04-22T03:50:30;13.30;99.90
4596;DHT22;2310;49.978;8.742;2023-04-22T03:54:31;13.30;99.90
4596;DHT22;2310;49.978;8.742;2023-04-22T03:58:32;13.40;99.90
4596;DHT22;2310;49.978;8.742;2023-04-22T04:02:34;13.50;99.90
4596;DHT22;2310;49.978;8.742;2023-04-22T04:06:37;13.50;99.90
4596;DHT22;2310;49.978;8.742;2023-04-22T04:10:38;13.50;99.90
4596;DHT22;2310;49.978;8.742;2023-04-22T04:14:39;13.50;99.90
4596;DHT22;2310;49.978;8.742;2023-04-22T04:18:41;13.40;99.90
4596;DHT22;2310;49.978;8.742;2023-04-22T04:22:42;13.40;99.90
4596;DHT22;2310;49.978;8.742;2023-04-22T04:26:43;13.40;99.90
4596;DHT22;2310;49.978;8.742;2023-04-22T04:30:44;13.20;99.90
4596;DHT22;2310;49.978;8.742;2023-04-22T04:34:45;13.00;99.90
4596;DHT22;2310;49.978;8.742;2023-04-22T04:38:47;12.90;99.90
4596;DHT22;2310;49.978;8.742;2023-04-22T04:42:49;12.90;99.90
4596;DHT22;2310;49.978;8.742;2023-04-22T04:46:52;12.90;99.90
4596;DHT22;2310;49.978;8.742;2023-04-22T04:50:54;13.00;99.90
4596;DHT22;2310;49.978;8.742;2023-04-22T04:54:56;13.00;99.90
4596;DHT22;2310;49.978;8.742;2023-04-22T04:58:58;13.10;99.90
4596;DHT22;2310;49.978;8.742;2023-04-22T05:02:59;13.20;99.90
4596;DHT22;2310;49.978;8.742;2023-04-22T05:07:01;13.40;99.90
4596;DHT22;2310;49.978;8.742;2023-04-22T05:11:02;13.40;99.90
4596;DHT22;2310;49.978;8.742;2023-04-22T05:15:04;13.40;99.90
4596;DHT22;2310;49.978;8.742;2023-04-22T05:19:05;13.40;99.90
4596;DHT22;2310;49.978;8.742;2023-04-22T05:23:06;13.60;99.90
4596;DHT22;2310;49.978;8.742;2023-04-22T05:27:07;13.60;99.90
4596;DHT22;2310;49.978;8.742;2023-04-22T05:31:09;13.60;99.90
4596;DHT22;2310;49.978;8.742;2023-04-22T05:35:10;13.70;99.90
4596;DHT22;2310;49.978;8.742;2023-04-22T05:39:11;13.80;99.90
4596;DHT22;2310;49.978;8.742;2023-04-22T05:43:13;13.90;99.90
4596;DHT22;2310;49.978;8.742;2023-04-22T05:47:14;14.10;99.90
4596;DHT22;2310;49.978;8.742;2023-04-22T05:51:15;14.10;99.90
4596;DHT22;2310;49.978;8.742;2023-04-22T05:55:16;14.30;99.90
4596;DHT22;2310;49.978;8.742;2023-04-22T05:59:18;14.30;99.90
4596;DHT22;2310;49.978;8.742;2023-04-22T06:03:20;14.40;99.90
4596;DHT22;2310;49.978;8.742;2023-04-22T06:07:22;14.60;99.90
4596;DHT22;2310;49.978;8.742;2023-04-22T06:11:23;14.90;99.90
4596;DHT22;2310;49.978;8.742;2023-04-22T06:15:25;15.00;99.90
4596;DHT22;2310;49.978;8.742;2023-04-22T06:19:26;14.80;99.90
4596;DHT22;2310;49.978;8.742;2023-04-22T06:23:27;14.50;99.90
4596;DHT22;2310;49.978;8.742;2023-04-22T06:27:28;14.40;99.90
4596;DHT22;2310;49.978;8.742;2023-04-22T06:31:30;14.80;99.90
4596;DHT22;2310;49.978;8.742;2023-04-22T06:35:32;15.00;99.90
4596;DHT22;2310;49.978;8.742;2023-04-22T06:39:33;15.30;99.90
4596;DHT22;2310;49.978;8.742;2023-04-22T06:43:34;15.50;99.90
4596;DHT22;2310;49.978;8.742;2023-04-22T06:47:36;15.70;99.90
4596;DHT22;2310;49.978;8.742;2023-04-22T06:51:37;16.10;99.90
4596;DHT22;2310;49.978;8.742;2023-04-22T06:55:38;16.20;99.90
4596;DHT22;2310;49.978;8.742;2023-04-22T06:59:40;16.20;99.90
4596;DHT22;2310;49.978;8.742;2023-04-22T07:03:42;16.40;99.90
4596;DHT22;2310;49.978;8.742;2023-04-22T07:07:44;16.50;99.90
4596;DHT22;2310;49.978;8.742;2023-04-22T07:11:45;16.60;99.90
4596;DHT22;2310;49.978;8.742;2023-04-22T07:15:46;16.90;99.90
4596;DHT22;2310;49.978;8.742;2023-04-22T07:19:48;17.20;99.90
4596;DHT22;2310;49.978;8.742;2023-04-22T07:23:49;17.20;99.90
4596;DHT22;2310;49.978;8.742;2023-04-22T07:27:51;17.50;99.90
4596;DHT22;2310;49.978;8.742;2023-04-22T07:31:52;17.50;99.90
4596;DHT22;2310;49.978;8.742;2023-04-22T07:35:54;17.60;99.90
4596;DHT22;2310;49.978;8.742;2023-04-22T07:39:55;17.90;99.90
4596;DHT22;2310;49.978;8.742;2023-04-22T07:43:56;17.80;99.90
4596;DHT22;2310;49.978;8.742;2023-04-22T07:47:58;18.00;99.90
4596;DHT22;2310;49.978;8.742;2023-04-22T07:51:59;18.50;99.90
4596;DHT22;2310;49.978;8.742;2023-04-22T07:56:03;19.00;99.90
4596;DHT22;2310;49.978;8.742;2023-04-22T08:00:06;19.40;99.90
4596;DHT22;2310;49.978;8.742;2023-04-22T08:04:07;19.60;99.90
4596;DHT22;2310;49.978;8.742;2023-04-22T08:08:09;19.70;99.90
4596;DHT22;2310;49.978;8.742;2023-04-22T08:12:10;19.80;99.90
4596;DHT22;2310;49.978;8.742;2023-04-22T08:16:11;20.10;99.90
4596;DHT22;2310;49.978;8.742;2023-04-22T08:20:12;19.80;99.90
4596;DHT22;2310;49.978;8.742;2023-04-22T08:24:15;20.40;99.90
4596;DHT22;2310;49.978;8.742;2023-04-22T08:28:16;20.30;99.90
4596;DHT22;2310;49.978;8.742;2023-04-22T08:32:17;20.50;99.90
4596;DHT22;2310;49.978;8.742;2023-04-22T08:36:19;20.70;99.90
4596;DHT22;2310;49.978;8.742;2023-04-22T08:40:23;20.50;99.90
4596;DHT22;2310;49.978;8.742;2023-04-22T08:44:24;20.60;99.90
4596;DHT22;2310;49.978;8.742;2023-04-22T08:48:26;21.00;99.90
4596;DHT22;2310;49.978;8.742;2023-04-22T08:52:29;21.40;99.60
4596;DHT22;2310;49.978;8.742;2023-04-22T08:56:31;21.30;99.90
4596;DHT22;2310;49.978;8.742;2023-04-22T09:00:32;21.30;99.90
4596;DHT22;2310;49.978;8.742;2023-04-22T09:04:34;21.90;99.90
4596;DHT22;2310;49.978;8.742;2023-04-22T09:08:37;22.10;93.50
4596;DHT22;2310;49.978;8.742;2023-04-22T09:12:40;22.50;93.20
4596;DHT22;2310;49.978;8.742;2023-04-22T09:16:46;22.90;94.70
4596;DHT22;2310;49.978;8.742;2023-04-22T09:20:48;23.00;91.50
4596;DHT22;2310;49.978;8.742;2023-04-22T09:24:51;23.00;91.20
4596;DHT22;2310;49.978;8.742;2023-04-22T09:28:55;23.50;93.20
4596;DHT22;2310;49.978;8.742;2023-04-22T09:33:02;23.90;89.70
4596;DHT22;2310;49.978;8.742;2023-04-22T09:37:04;24.00;84.70
4596;DHT22;2310;49.978;8.742;2023-04-22T09:41:09;24.20;82.50
4596;DHT22;2310;49.978;8.742;2023-04-22T09:45:12;24.50;76.50
4596;DHT22;2310;49.978;8.742;2023-04-22T09:49:15;24.80;76.00
4596;DHT22;2310;49.978;8.742;2023-04-22T09:53:18;25.20;71.80
4596;DHT22;2310;49.978;8.742;2023-04-22T09:57:20;25.40;72.10
4596;DHT22;2310;49.978;8.742;2023-04-22T10:01:22;25.30;69.40
4596;DHT22;2310;49.978;8.742;2023-04-22T10:05:23;26.10;65.80
4596;DHT22;2310;49.978;8.742;2023-04-22T10:09:25;26.60;68.80
4596;DHT22;2310;49.978;8.742;2023-04-22T10:13:26;26.90;62.30
4596;DHT22;2310;49.978;8.742;2023-04-22T10:17:30;27.00;58.50
4596;DHT22;2310;49.978;8.742;2023-04-22T10:21:33;27.10;59.90
4596;DHT22;2310;49.978;8.742;2023-04-22T10:25:34;27.40;53.10
4596;DHT22;2310;49.978;8.742;2023-04-22T10:29:38;26.60;53.00
4596;DHT22;2310;49.978;8.742;2023-04-22T10:33:41;26.80;52.80
4596;DHT22;2310;49.978;8.742;2023-04-22T10:37:43;26.70;54.40
4596;DHT22;2310;49.978;8.742;2023-04-22T10:41:52;27.00;52.40
4596;DHT22;2310;49.978;8.742;2023-04-22T10:45:53;27.40;52.20
4596;DHT22;2310;49.978;8.742;2023-04-22T10:58:34;28.80;53.10
4596;DHT22;2310;49.978;8.742;2023-04-22T11:02:36;27.60;43.50
4596;DHT22;2310;49.978;8.742;2023-04-22T11:06:39;26.30;44.20
4596;DHT22;2310;49.978;8.742;2023-04-22T11:10:43;26.70;43.80
4596;DHT22;2310;49.978;8.742;2023-04-22T11:14:48;27.10;43.20
4596;DHT22;2310;49.978;8.742;2023-04-22T11:18:50;27.20;42.20
4596;DHT22;2310;49.978;8.742;2023-04-22T11:22:53;27.10;41.50
4596;DHT22;2310;49.978;8.742;2023-04-22T11:26:55;27.50;42.30
4596;DHT22;2310;49.978;8.742;2023-04-22T11:31:05;27.20;42.30
4596;DHT22;2310;49.978;8.742;2023-04-22T11:35:08;27.60;42.50
4596;DHT22;2310;49.978;8.742;2023-04-22T11:39:10;26.90;42.80
4596;DHT22;2310;49.978;8.742;2023-04-22T11:43:13;26.40;42.10
4596;DHT22;2310;49.978;8.742;2023-04-22T11:47:14;26.40;43.00
4596;DHT22;2310;49.978;8.742;2023-04-22T11:51:15;26.30;42.40
4596;DHT22;2310;49.978;8.742;2023-04-22T11:55:20;26.70;43.00
4596;DHT22;2310;49.978;8.742;2023-04-22T11:59:24;27.00;42.30
4596;DHT22;2310;49.978;8.742;2023-04-22T12:03:27;27.00;42.00
4596;DHT22;2310;49.978;8.742;2023-04-22T12:07:30;27.50;43.20
4596;DHT22;2310;49.978;8.742;2023-04-22T12:11:33;27.40;42.00
4596;DHT22;2310;49.978;8.742;2023-04-22T12:15:41;27.70;43.20
4596;DHT22;2310;49.978;8.742;2023-04-22T12:19:47;26.80;41.40
4596;DHT22;2310;49.978;8.742;2023-04-22T12:23:54;25.90;42.20
4596;DHT22;2310;49.978;8.742;2023-04-22T12:27:55;25.80;42.00
4596;DHT22;2310;49.978;8.742;2023-04-22T12:31:57;25.80;44.40
4596;DHT22;2310;49.978;8.742;2023-04-22T12:35:59;25.70;44.90
4596;DHT22;2310;49.978;8.742;2023-04-22T12:40:00;25.60;44.40
4596;DHT22;2310;49.978;8.742;2023-04-22T12:44:01;25.70;45.90
4596;DHT22;2310;49.978;8.742;2023-04-22T12:48:03;25.70;45.30
4596;DHT22;2310;49.978;8.742;2023-04-22T12:52:04;25.80;46.10
4596;DHT22;2310;49.978;8.742;2023-04-22T12:56:05;25.60;46.30
4596;DHT22;2310;49.978;8.742;2023-04-22T13:00:07;25.30;45.90
4596;DHT22;2310;49.978;8.742;2023-04-22T13:04:11;25.70;45.70
4596;DHT22;2310;49.978;8.742;2023-04-22T13:08:12;25.50;44.60
4596;DHT22;2310;49.978;8.742;2023-04-22T13:12:13;25.30;44.00
4596;DHT22;2310;49.978;8.742;2023-04-22T13:16:15;25.60;45.20
4596;DHT22;2310;49.978;8.742;2023-04-22T13:20:16;25.60;44.80
4596;DHT22;2310;49.978;8.742;2023-04-22T13:24:17;25.60;44.50
4596;DHT22;2310;49.978;8.742;2023-04-22T13:28:19;25.40;44.40
4596;DHT22;2310;49.978;8.742;2023-04-22T13:32:20;25.00;44.90
4596;DHT22;2310;49.978;8.742;2023-04-22T13:36:21;24.40;45.70
4596;DHT22;2310;49.978;8.742;2023-04-22T13:40:22;24.40;46.90
4596;DHT22;2310;49.978;8.742;2023-04-22T13:44:23;23.90;46.50
4596;DHT22;2310;49.978;8.742;2023-04-22T13:48:25;23.80;48.60
4596;DHT22;2310;49.978;8.742;2023-04-22T13:52:27;23.60;49.60
4596;DHT22;2310;49.978;8.742;2023-04-22T13:56:29;23.40;49.80
4596;DHT22;2310;49.978;8.742;2023-04-22T14:00:31;23.30;50.30
4596;DHT22;2310;49.978;8.742;2023-04-22T14:04:33;23.20;50.90
4596;DHT22;2310;49.978;8.742;2023-04-22T14:08:34;22.90;50.70
4596;DHT22;2310;49.978;8.742;2023-04-22T14:12:36;22.90;51.10
4596;DHT22;2310;49.978;8.742;2023-04-22T14:16:38;22.50;49.90
4596;DHT22;2310;49.978;8.742;2023-04-22T14:20:39;22.40;50.80
4596;DHT22;2310;49.978;8.742;2023-04-22T14:24:41;22.20;51.40
4596;DHT22;2310;49.978;8.742;2023-04-22T14:28:42;22.20;53.00
4596;DHT22;2310;49.978;8.742;2023-04-22T14:32:43;22.20;52.60
4596;DHT22;2310;49.978;8.742;2023-04-22T14:36:45;21.70;54.60
4596;DHT22;2310;49.978;8.742;2023-04-22T14:40:46;21.40;56.40
4596;DHT22;2310;49.978;8.742;2023-04-22T14:44:48;21.50;59.00
4596;DHT22;2310;49.978;8.742;2023-04-22T14:48:49;21.40;59.40
4596;DHT22;2310;49.978;8.742;2023-04-22T14:52:50;21.30;59.20
4596;DHT22;2310;49.978;8.742;2023-04-22T14:56:52;21.40;59.60
4596;DHT22;2310;49.978;8.742;2023-04-22T15:00:55;21.20;58.90
4596;DHT22;2310;49.978;8.742;2023-04-22T15:04:56;21.20;60.00
4596;DHT22;2310;49.978;8.742;2023-04-22T15:08:57;21.20;61.00
4596;DHT22;2310;49.978;8.742;2023-04-22T15:12:58;21.10;61.50
4596;DHT22;2310;49.978;8.742;2023-04-22T15:17:01;21.20;62.50
4596;DHT22;2310;49.978;8.742;2023-04-22T15:21:02;21.20;64.40
4596;DHT22;2310;49.978;8.742;2023-04-22T15:25:06;21.20;65.80
4596;DHT22;2310;49.978;8.742;2023-04-22T15:29:10;21.30;65.20
4596;DHT22;2310;49.978;8.742;2023-04-22T15:33:11;21.50;68.70
4596;DHT22;2310;49.978;8.742;2023-04-22T15:37:14;21.50;68.00
4596;DHT22;2310;49.978;8.742;2023-04-22T15:41:15;21.60;67.70
4596;DHT22;2310;49.978;8.742;2023-04-22T15:45:17;21.50;69.80
4596;DHT22;2310;49.978;8.742;2023-04-22T15:49:18;21.60;68.60
4596;DHT22;2310;49.978;8.742;2023-04-22T15:53:19;21.30;71.10
4596;DHT22;2310;49.978;8.742;2023-04-22T15:57:20;21.40;71.30
4596;DHT22;2310;49.978;8.742;2023-04-22T16:01:22;21.30;70.50
4596;DHT22;2310;49.978;8.742;2023-04-22T16:05:23;21.10;72.10
4596;DHT22;2310;49.978;8.742;2023-04-22T16:09:24;21.30;72.50
4596;DHT22;2310;49.978;8.742;2023-04-22T16:13:26;21.40;71.70
4596;DHT22;2310;49.978;8.742;2023-04-22T16:17:27;21.40;71.70
4596;DHT22;2310;49.978;8.742;2023-04-22T16:21:29;21.30;72.70
4596;DHT22;2310;49.978;8.742;2023-04-22T16:25:30;21.40;73.80
4596;DHT22;2310;49.978;8.742;2023-04-22T16:29:31;21.20;75.40
4596;DHT22;2310;49.978;8.742;2023-04-22T16:33:33;21.40;75.70
4596;DHT22;2310;49.978;8.742;2023-04-22T16:37:34;21.30;73.60
4596;DHT22;2310;49.978;8.742;2023-04-22T16:41:36;21.20;74.90
4596;DHT22;2310;49.978;8.742;2023-04-22T16:45:37;21.20;74.10
4596;DHT22;2310;49.978;8.742;2023-04-22T16:49:39;21.30;73.10
4596;DHT22;2310;49.978;8.742;2023-04-22T16:53:40;21.30;76.90
4596;DHT22;2310;49.978;8.742;2023-04-22T16:57:42;21.40;77.50
4596;DHT22;2310;49.978;8.742;2023-04-22T17:01:45;21.30;73.90
4596;DHT22;2310;49.978;8.742;2023-04-22T17:05:46;21.30;74.10
4596;DHT22;2310;49.978;8.742;2023-04-22T17:09:47;21.20;75.00
4596;DHT22;2310;49.978;8.742;2023-04-22T17:13:49;20.90;74.70
4596;DHT22;2310;49.978;8.742;2023-04-22T17:17:50;21.00;75.60
4596;DHT22;2310;49.978;8.742;2023-04-22T17:21:51;20.90;76.60
4596;DHT22;2310;49.978;8.742;2023-04-22T17:25:52;20.80;78.90
4596;DHT22;2310;49.978;8.742;2023-04-22T17:29:53;20.70;77.70
4596;DHT22;2310;49.978;8.742;2023-04-22T17:33:55;20.80;75.80
4596;DHT22;2310;49.978;8.742;2023-04-22T17:37:56;20.80;76.20
4596;DHT22;2310;49.978;8.742;2023-04-22T17:41:57;20.90;76.90
4596;DHT22;2310;49.978;8.742;2023-04-22T17:45:59;20.90;76.80
4596;DHT22;2310;49.978;8.742;2023-04-22T17:50:00;20.80;76.20
4596;DHT22;2310;49.978;8.742;2023-04-22T17:54:01;20.90;77.20
4596;DHT22;2310;49.978;8.742;2023-04-22T17:58:04;20.60;77.70
4596;DHT22;2310;49.978;8.742;2023-04-22T18:02:07;20.60;79.30
4596;DHT22;2310;49.978;8.742;2023-04-22T18:06:10;20.60;79.80
4596;DHT22;2310;49.978;8.742;2023-04-22T18:10:11;20.60;79.80
4596;DHT22;2310;49.978;8.742;2023-04-22T18:14:13;20.50;80.30
4596;DHT22;2310;49.978;8.742;2023-04-22T18:18:14;20.50;81.20
4596;DHT22;2310;49.978;8.742;2023-04-22T18:22:17;20.50;80.20
4596;DHT22;2310;49.978;8.742;2023-04-22T18:26:19;20.20;80.10
4596;DHT22;2310;49.978;8.742;2023-04-22T18:30:21;20.20;82.10
4596;DHT22;2310;49.978;8.742;2023-04-22T18:34:23;20.00;85.00
4596;DHT22;2310;49.978;8.742;2023-04-22T18:38:24;20.00;89.20
4596;DHT22;2310;49.978;8.742;2023-04-22T18:42:27;19.90;90.60
4596;DHT22;2310;49.978;8.742;2023-04-22T18:46:28;19.80;91.90
4596;DHT22;2310;49.978;8.742;2023-04-22T18:50:29;19.80;92.90
4596;DHT22;2310;49.978;8.742;2023-04-22T18:54:30;19.40;95.40
4596;DHT22;2310;49.978;8.742;2023-04-22T18:58:31;19.40;98.60
4596;DHT22;2310;49.978;8.742;2023-04-22T19:02:32;19.10;99.90
4596;DHT22;2310;49.978;8.742;2023-04-22T19:06:36;19.00;99.90
4596;DHT22;2310;49.978;8.742;2023-04-22T19:10:37;18.90;99.90
4596;DHT22;2310;49.978;8.742;2023-04-22T19:14:38;18.90;99.90
4596;DHT22;2310;49.978;8.742;2023-04-22T19:18:41;18.80;99.90
4596;DHT22;2310;49.978;8.742;2023-04-22T19:22:43;18.70;99.90
4596;DHT22;2310;49.978;8.742;2023-04-22T19:26:45;18.60;99.90
4596;DHT22;2310;49.978;8.742;2023-04-22T19:30:48;18.60;99.90
4596;DHT22;2310;49.978;8.742;2023-04-22T19:34:49;18.60;99.90
4596;DHT22;2310;49.978;8.742;2023-04-22T19:38:50;18.40;99.90
4596;DHT22;2310;49.978;8.742;2023-04-22T19:42:52;18.50;99.90
4596;DHT22;2310;49.978;8.742;2023-04-22T19:46:53;18.50;99.90
4596;DHT22;2310;49.978;8.742;2023-04-22T19:50:54;18.50;99.90
4596;DHT22;2310;49.978;8.742;2023-04-22T19:54:57;18.40;99.90
4596;DHT22;2310;49.978;8.742;2023-04-22T19:59:00;18.30;99.90
4596;DHT22;2310;49.978;8.742;2023-04-22T20:03:02;18.20;99.90
4596;DHT22;2310;49.978;8.742;2023-04-22T20:07:04;18.20;99.90
4596;DHT22;2310;49.978;8.742;2023-04-22T20:11:08;18.10;99.90
4596;DHT22;2310;49.978;8.742;2023-04-22T20:15:10;18.00;99.90
4596;DHT22;2310;49.978;8.742;2023-04-22T20:19:12;18.00;99.90
4596;DHT22;2310;49.978;8.742;2023-04-22T20:23:16;18.00;99.90
4596;DHT22;2310;49.978;8.742;2023-04-22T20:27:19;18.10;99.90
4596;DHT22;2310;49.978;8.742;2023-04-22T20:31:21;18.10;99.90
4596;DHT22;2310;49.978;8.742;2023-04-22T20:35:24;18.00;99.90
4596;DHT22;2310;49.978;8.742;2023-04-22T20:39:25;17.90;99.90
4596;DHT22;2310;49.978;8.742;2023-04-22T20:43:27;18.00;99.90
4596;DHT22;2310;49.978;8.742;2023-04-22T20:47:29;17.80;99.90
4596;DHT22;2310;49.978;8.742;2023-04-22T20:51:30;17.80;99.90
4596;DHT22;2310;49.978;8.742;2023-04-22T20:55:31;17.70;99.90
4596;DHT22;2310;49.978;8.742;2023-04-22T20:59:34;17.60;99.90
4596;DHT22;2310;49.978;8.742;2023-04-22T21:03:37;17.50;99.90
4596;DHT22;2310;49.978;8.742;2023-04-22T21:07:40;17.60;99.90
4596;DHT22;2310;49.978;8.742;2023-04-22T21:11:42;17.40;99.90
4596;DHT22;2310;49.978;8.742;2023-04-22T21:16:06;17.10;99.90
4596;DHT22;2310;49.978;8.742;2023-04-22T21:19:49;17.10;99.90
4596;DHT22;2310;49.978;8.742;2023-04-22T21:23:51;17.10;99.90
4596;DHT22;2310;49.978;8.742;2023-04-22T21:27:54;17.00;99.90
4596;DHT22;2310;49.978;8.742;2023-04-22T21:31:56;16.80;99.90
4596;DHT22;2310;49.978;8.742;2023-04-22T21:35:59;16.80;99.90
4596;DHT22;2310;49.978;8.742;2023-04-22T21:40:00;16.50;99.90
4596;DHT22;2310;49.978;8.742;2023-04-22T21:44:02;16.40;99.90
4596;DHT22;2310;49.978;8.742;2023-04-22T21:48:03;16.40;99.90
4596;DHT22;2310;49.978;8.742;2023-04-22T21:52:05;16.40;99.90
4596;DHT22;2310;49.978;8.742;2023-04-22T21:56:06;16.20;99.90
4596;DHT22;2310;49.978;8.742;2023-04-22T22:00:08;16.00;99.90
4596;DHT22;2310;49.978;8.742;2023-04-22T22:04:11;16.20;99.90
4596;DHT22;2310;49.978;8.742;2023-04-22T22:08:14;16.20;99.90
4596;DHT22;2310;49.978;8.742;2023-04-22T22:12:16;16.10;99.90
4596;DHT22;2310;49.978;8.742;2023-04-22T22:16:17;16.20;99.90
4596;DHT22;2310;49.978;8.742;2023-04-22T22:20:18;16.20;99.90
4596;DHT22;2310;49.978;8.742;2023-04-22T22:24:20;16.20;99.90
4596;DHT22;2310;49.978;8.742;2023-04-22T22:28:21;16.20;99.90
4596;DHT22;2310;49.978;8.742;2023-04-22T22:32:22;16.00;99.90
4596;DHT22;2310;49.978;8.742;2023-04-22T22:36:24;15.80;99.90
4596;DHT22;2310;49.978;8.742;2023-04-22T22:40:28;16.00;99.90
4596;DHT22;2310;49.978;8.742;2023-04-22T22:44:29;16.00;99.90
4596;DHT22;2310;49.978;8.742;2023-04-22T22:48:30;15.80;99.90
4596;DHT22;2310;49.978;8.742;2023-04-22T22:52:31;15.70;99.90
4596;DHT22;2310;49.978;8.742;2023-04-22T22:56:32;15.80;99.90
4596;DHT22;2310;49.978;8.742;2023-04-22T23:00:33;15.70;99.90
4596;DHT22;2310;49.978;8.742;2023-04-22T23:04:35;15.80;99.90
4596;DHT22;2310;49.978;8.742;2023-04-22T23:08:37;15.70;99.90
4596;DHT22;2310;49.978;8.742;2023-04-22T23:12:38;15.70;99.90
4596;DHT22;2310;49.978;8.742;2023-04-22T23:16:39;15.70;99.90
4596;DHT22;2310;49.978;8.742;2023-04-22T23:20:42;15.70;99.90
4596;DHT22;2310;49.978;8.742;2023-04-22T23:24:44;15.70;99.90
4596;DHT22;2310;49.978;8.742;2023-04-22T23:28:45;15.60;99.90
4596;DHT22;2310;49.978;8.742;2023-04-22T23:32:47;15.50;99.90
4596;DHT22;2310;49.978;8.742;2023-04-22T23:36:49;15.40;99.90
4596;DHT22;2310;49.978;8.742;2023-04-22T23:40:50;15.40;99.90
4596;DHT22;2310;49.978;8.742;2023-04-22T23:44:51;15.40;99.90
4596;DHT22;2310;49.978;8.742;2023-04-22T23:48:53;15.40;99.90
4596;DHT22;2310;49.978;8.742;2023-04-22T23:52:54;15.60;99.90
4596;DHT22;2310;49.978;8.742;2023-04-22T23:56:56;15.50;99.90
